Union Center, New Jersey
Current Conditions -  °F | °C
As of 10:51 AM on Wednesday 28 Jan 2015 (Local Time) from KEWR Reporting Station
Scattered Clouds Scattered Clouds  
Wind Chill: 14°   Ceiling: Unl
Heat Index: 25°   Visibility: 10mi
Dew Point:   Wind: 12mph
Humidity: 49%   Direction: 320°NW
Pressure: 30.07"   Gusts: NA
Location:  40.6941°N, 74.2694°W
Report Text: KEWR 281551Z 32010KT 10SM FEW100 SCT140 M04/M13 A3007 RMK AO2 SLP183 T10391133
Loading
Personal Weather Stations






























Interactive Weather Map New forecast layout! Learn more

10-Day Weather Forecast

Advertisements
Track Severe Weather on mobile